createdAt,value
2023-02-18T00:00:12.392Z,61.94
2023-02-18T00:01:12.387Z,61.78
2023-02-18T00:02:12.405Z,61.75
2023-02-18T00:03:12.427Z,61.49
2023-02-18T00:04:12.361Z,61.75
2023-02-18T00:05:12.368Z,61.85
2023-02-18T00:06:12.356Z,61.75
2023-02-18T00:07:12.375Z,61.85
2023-02-18T00:08:12.350Z,61.78
2023-02-18T00:09:12.344Z,61.88
2023-02-18T00:10:12.338Z,61.94
2023-02-18T00:11:12.341Z,61.94
2023-02-18T00:12:12.332Z,61.85
2023-02-18T00:13:12.345Z,61.94
2023-02-18T00:14:12.336Z,61.94
2023-02-18T00:15:12.329Z,61.94
2023-02-18T00:16:12.388Z,61.98
2023-02-18T00:17:12.309Z,61.94
2023-02-18T00:18:12.312Z,61.94
2023-02-18T00:19:12.335Z,61.85
2023-02-18T00:20:12.298Z,62.04
2023-02-18T00:21:12.306Z,62.04
2023-02-18T00:22:12.289Z,61.85
2023-02-18T00:23:12.302Z,61.85
2023-02-18T00:24:12.276Z,62.07
2023-02-18T00:25:12.287Z,61.85
2023-02-18T00:26:12.284Z,61.98
2023-02-18T00:27:12.279Z,61.75
2023-02-18T00:28:12.258Z,61.85
2023-02-18T00:29:12.275Z,61.85
2023-02-18T00:30:12.285Z,62.13
2023-02-18T00:31:12.401Z,62.07
2023-02-18T00:32:12.297Z,62.13
2023-02-18T00:33:12.252Z,61.94
2023-02-18T00:34:12.247Z,61.98
2023-02-18T00:35:12.275Z,62.52
2023-02-18T00:36:12.236Z,62.55
2023-02-18T00:37:12.264Z,61.98
2023-02-18T00:38:12.237Z,62.16
2023-02-18T00:39:12.274Z,62.55
2023-02-18T00:40:12.207Z,62.52
2023-02-18T00:41:12.215Z,62.45
2023-02-18T00:42:12.218Z,62.45
2023-02-18T00:43:12.203Z,62.55
2023-02-18T00:44:12.205Z,61.85
2023-02-18T00:45:12.222Z,61.94
2023-02-18T00:46:12.261Z,62.45
2023-02-18T00:47:12.192Z,62.45
2023-02-18T00:48:12.189Z,62.45
2023-02-18T00:49:12.184Z,62.42
2023-02-18T00:50:12.179Z,62.42
2023-02-18T00:51:12.211Z,62.23
2023-02-18T00:52:12.156Z,61.98
2023-02-18T00:53:12.186Z,62.26
2023-02-18T00:54:12.164Z,61.98
2023-02-18T00:55:12.169Z,62.52
2023-02-18T00:56:12.198Z,62.16
2023-02-18T00:57:12.140Z,62.42
2023-02-18T00:58:12.137Z,62.23
2023-02-18T00:59:12.145Z,62.23
2023-02-18T01:00:12.158Z,62.16
2023-02-18T01:01:12.136Z,62.23
2023-02-18T01:02:12.118Z,62.23
2023-02-18T01:03:12.136Z,62.13
2023-02-18T01:04:12.123Z,62.52
2023-02-18T01:05:12.141Z,62.04
2023-02-18T01:06:12.346Z,62.13
2023-02-18T01:07:12.133Z,62.13
2023-02-18T01:08:12.108Z,62.23
2023-02-18T01:09:12.113Z,62.23
2023-02-18T01:10:12.108Z,62.13
2023-02-18T01:11:12.089Z,62.13
2023-02-18T01:12:12.078Z,62.13
2023-02-18T01:13:12.122Z,62.23
2023-02-18T01:14:12.102Z,62.33
2023-02-18T01:15:12.070Z,62.36
2023-02-18T01:16:12.356Z,62.23
2023-02-18T01:17:12.070Z,62.13
2023-02-18T01:18:12.056Z,62.13
2023-02-18T01:19:12.058Z,62.23
2023-02-18T01:20:12.052Z,62.26
2023-02-18T01:21:12.059Z,62.33
2023-02-18T01:22:12.061Z,62.33
2023-02-18T01:23:12.082Z,62.23
2023-02-18T01:24:12.044Z,62.33
2023-02-18T01:25:12.040Z,62.42
2023-02-18T01:26:12.098Z,62.04
2023-02-18T01:27:12.018Z,62.42
2023-02-18T01:28:12.059Z,62.45
2023-02-18T01:29:12.028Z,62.62
2023-02-18T01:30:12.041Z,62.42
2023-02-18T01:31:12.460Z,62.04
2023-02-18T01:32:12.117Z,62.04
2023-02-18T01:33:12.002Z,62.04
2023-02-18T01:34:12.004Z,62.13
2023-02-18T01:35:11.985Z,62.52
2023-02-18T01:36:12.239Z,62.13
2023-02-18T01:37:11.976Z,62.04
2023-02-18T01:38:11.981Z,62.45
2023-02-18T01:39:11.990Z,62.04
2023-02-18T01:40:11.978Z,62.04
2023-02-18T01:41:12.008Z,62.13
2023-02-18T01:42:11.969Z,62.36
2023-02-18T01:43:11.955Z,62.16
2023-02-18T01:44:11.964Z,62.13
2023-02-18T01:45:11.952Z,62.26
2023-02-18T01:46:12.046Z,62.42
2023-02-18T01:47:11.954Z,62.45
2023-02-18T01:48:11.975Z,62.45
2023-02-18T01:49:11.945Z,62.33
2023-02-18T01:50:11.937Z,62.42
2023-02-18T01:51:12.164Z,62.13
2023-02-18T01:52:11.946Z,62.42
2023-02-18T01:53:11.939Z,62.42
2023-02-18T01:54:11.912Z,62.45
2023-02-18T01:55:11.920Z,62.13
2023-02-18T01:56:11.946Z,62.62
2023-02-18T01:57:11.885Z,62.42
2023-02-18T01:58:11.895Z,62.52
2023-02-18T01:59:11.884Z,62.52
2023-02-18T02:00:11.888Z,62.23
2023-02-18T02:01:12.026Z,62.33
2023-02-18T02:02:11.919Z,62.45
2023-02-18T02:03:11.873Z,62.52
2023-02-18T02:04:11.858Z,62.52
2023-02-18T02:05:11.864Z,62.65
2023-02-18T02:06:11.856Z,62.62
2023-02-18T02:07:11.853Z,62.62
2023-02-18T02:08:11.847Z,62.52
2023-02-18T02:09:11.845Z,62.62
2023-02-18T02:10:11.852Z,62.33
2023-02-18T02:11:11.839Z,62.52
2023-02-18T02:12:11.837Z,62.62
2023-02-18T02:13:11.830Z,62.33
2023-02-18T02:14:11.828Z,62.42
2023-02-18T02:15:11.834Z,62.33
2023-02-18T02:16:11.961Z,62.42
2023-02-18T02:17:11.807Z,62.42
2023-02-18T02:18:11.819Z,62.33
2023-02-18T02:19:11.810Z,62.23
2023-02-18T02:20:11.820Z,62.23
2023-02-18T02:21:11.801Z,62.23
2023-02-18T02:22:11.786Z,62.33
2023-02-18T02:23:11.783Z,62.33
2023-02-18T02:24:11.773Z,62.33
2023-02-18T02:25:11.772Z,62.26
2023-02-18T02:26:11.797Z,62.42
2023-02-18T02:27:11.777Z,62.45
2023-02-18T02:28:11.754Z,62.33
2023-02-18T02:29:11.750Z,62.13
2023-02-18T02:30:11.799Z,62.42
2023-02-18T02:31:11.847Z,62.23
2023-02-18T02:32:11.784Z,62.33
2023-02-18T02:33:11.760Z,62.42
2023-02-18T02:34:11.745Z,62.33
2023-02-18T02:35:11.731Z,62.42
2023-02-18T02:36:11.729Z,62.23
2023-02-18T02:37:11.722Z,62.42
2023-02-18T02:38:11.726Z,62.23
2023-02-18T02:39:11.712Z,61.94
2023-02-18T02:40:11.700Z,62.23
2023-02-18T02:41:11.716Z,62.62
2023-02-18T02:42:11.720Z,62.26
2023-02-18T02:43:11.706Z,62.33
2023-02-18T02:44:11.701Z,62.23
2023-02-18T02:45:11.689Z,62.23
2023-02-18T02:46:12.058Z,62.23
2023-02-18T02:47:11.685Z,62.33
2023-02-18T02:48:11.689Z,62.42
2023-02-18T02:49:11.667Z,62.23
2023-02-18T02:50:11.665Z,62.42
2023-02-18T02:51:11.663Z,62.33
2023-02-18T02:52:11.658Z,62.81
2023-02-18T02:53:11.645Z,62.71
2023-02-18T02:54:11.644Z,62.23
2023-02-18T02:55:11.644Z,62.33
2023-02-18T02:56:11.643Z,62.62
2023-02-18T02:57:11.651Z,62.23
2023-02-18T02:58:11.641Z,62.81
2023-02-18T02:59:11.657Z,62.13
2023-02-18T03:00:11.646Z,62.81
2023-02-18T03:01:11.676Z,62.81
2023-02-18T03:02:11.625Z,62.62
2023-02-18T03:03:11.667Z,62.81
2023-02-18T03:04:11.620Z,62.71
2023-02-18T03:05:11.616Z,62.71
2023-02-18T03:06:11.620Z,62.71
2023-02-18T03:07:11.592Z,62.33
2023-02-18T03:08:11.604Z,62.04
2023-02-18T03:09:11.598Z,62.81
2023-02-18T03:10:11.588Z,62.90
2023-02-18T03:11:11.591Z,62.71
2023-02-18T03:12:11.571Z,62.81
2023-02-18T03:13:11.568Z,62.52
2023-02-18T03:14:11.582Z,62.52
2023-02-18T03:15:11.693Z,62.52
2023-02-18T03:16:11.775Z,62.71
2023-02-18T03:17:11.569Z,62.71
2023-02-18T03:18:11.574Z,62.62
2023-02-18T03:19:11.544Z,62.52
2023-02-18T03:20:11.554Z,61.94
2023-02-18T03:21:11.546Z,62.62
2023-02-18T03:22:11.552Z,62.81
2023-02-18T03:23:11.538Z,62.71
2023-02-18T03:24:11.527Z,62.52
2023-02-18T03:25:11.527Z,62.71
2023-02-18T03:26:11.517Z,62.71
2023-02-18T03:27:11.520Z,62.62
2023-02-18T03:28:11.520Z,62.52
2023-02-18T03:29:11.494Z,62.71
2023-02-18T03:30:11.602Z,62.62
2023-02-18T03:31:11.531Z,62.62
2023-02-18T03:32:11.552Z,61.94
2023-02-18T03:33:11.484Z,62.71
2023-02-18T03:34:11.479Z,62.52
2023-02-18T03:35:11.476Z,62.71
2023-02-18T03:36:11.487Z,62.62
2023-02-18T03:37:11.498Z,62.62
2023-02-18T03:38:11.464Z,62.62
2023-02-18T03:39:11.476Z,62.55
2023-02-18T03:40:11.457Z,62.71
2023-02-18T03:41:11.446Z,62.71
2023-02-18T03:42:11.467Z,62.65
2023-02-18T03:43:11.443Z,62.71
2023-02-18T03:44:11.449Z,62.71
2023-02-18T03:45:11.448Z,62.71
2023-02-18T03:46:11.980Z,62.71
2023-02-18T03:47:11.461Z,62.81
2023-02-18T03:48:11.441Z,62.81
2023-02-18T03:49:11.415Z,61.94
2023-02-18T03:50:11.412Z,62.62
2023-02-18T03:51:11.407Z,62.62
2023-02-18T03:52:11.458Z,62.71
2023-02-18T03:53:11.417Z,62.62
2023-02-18T03:54:11.412Z,62.71
2023-02-18T03:55:11.393Z,62.71
2023-02-18T03:56:11.396Z,62.04
2023-02-18T03:57:11.391Z,62.62
2023-02-18T03:58:11.390Z,62.62
2023-02-18T03:59:11.367Z,62.62
2023-02-18T04:00:11.384Z,62.42
2023-02-18T04:01:11.406Z,62.71
2023-02-18T04:02:11.376Z,62.42
2023-02-18T04:03:11.386Z,62.62
2023-02-18T04:04:11.508Z,61.75
2023-02-18T04:05:11.349Z,61.94
2023-02-18T04:06:11.345Z,62.71
2023-02-18T04:07:11.332Z,61.75
2023-02-18T04:08:11.344Z,62.42
2023-02-18T04:09:11.331Z,62.90
2023-02-18T04:10:11.326Z,62.71
2023-02-18T04:11:11.321Z,62.84
2023-02-18T04:12:11.328Z,62.71
2023-02-18T04:13:11.329Z,62.90
2023-02-18T04:14:11.312Z,62.90
2023-02-18T04:15:11.298Z,62.90
2023-02-18T04:16:11.324Z,62.90
2023-02-18T04:17:11.286Z,62.42
2023-02-18T04:18:11.289Z,62.42
2023-02-18T04:19:11.326Z,62.52
2023-02-18T04:20:11.297Z,62.74
2023-02-18T04:21:11.290Z,62.81
2023-02-18T04:22:11.286Z,62.90
2023-02-18T04:23:11.262Z,62.42
2023-02-18T04:24:11.286Z,62.84
2023-02-18T04:25:11.262Z,62.90
2023-02-18T04:26:11.546Z,62.90
2023-02-18T04:27:11.262Z,62.71
2023-02-18T04:28:11.284Z,62.71
2023-02-18T04:29:11.259Z,62.90
2023-02-18T04:30:11.285Z,62.90
2023-02-18T04:31:11.356Z,62.71
2023-02-18T04:32:11.243Z,62.81
2023-02-18T04:33:11.224Z,62.71
2023-02-18T04:34:11.252Z,62.71
2023-02-18T04:35:11.240Z,62.90
2023-02-18T04:36:11.369Z,62.90
2023-02-18T04:37:11.223Z,62.71
2023-02-18T04:38:11.229Z,62.71
2023-02-18T04:39:11.203Z,62.71
2023-02-18T04:40:11.203Z,62.52
2023-02-18T04:41:11.190Z,62.71
2023-02-18T04:42:11.219Z,62.71
2023-02-18T04:43:11.198Z,62.90
2023-02-18T04:44:11.204Z,62.71
2023-02-18T04:45:11.185Z,62.71
2023-02-18T04:46:11.455Z,62.71
2023-02-18T04:47:11.178Z,62.52
2023-02-18T04:48:11.184Z,62.71
2023-02-18T04:49:11.168Z,62.71
2023-02-18T04:50:11.180Z,62.71
2023-02-18T04:51:11.183Z,62.62
2023-02-18T04:52:11.150Z,62.71
2023-02-18T04:53:11.170Z,62.90
2023-02-18T04:54:11.167Z,62.52
2023-02-18T04:55:11.165Z,62.52
2023-02-18T04:56:11.149Z,62.81
2023-02-18T04:57:11.164Z,62.52
2023-02-18T04:58:11.124Z,62.62
2023-02-18T04:59:11.148Z,62.62
2023-02-18T05:00:11.132Z,62.62
2023-02-18T05:01:11.192Z,62.62
2023-02-18T05:02:11.127Z,62.90
2023-02-18T05:03:11.104Z,62.52
2023-02-18T05:04:11.203Z,62.52
2023-02-18T05:05:11.106Z,62.90
2023-02-18T05:06:11.208Z,62.62
2023-02-18T05:07:11.115Z,62.81
2023-02-18T05:08:11.114Z,62.62
2023-02-18T05:09:11.087Z,62.52
2023-02-18T05:10:11.101Z,62.62
2023-02-18T05:11:11.086Z,62.62
2023-02-18T05:12:11.107Z,62.52
2023-02-18T05:13:11.063Z,62.52
2023-02-18T05:14:11.070Z,62.52
2023-02-18T05:15:11.066Z,62.52
2023-02-18T05:16:11.662Z,62.62
2023-02-18T05:17:11.077Z,62.52
2023-02-18T05:18:11.089Z,62.52
2023-02-18T05:19:11.054Z,62.71
2023-02-18T05:20:11.067Z,62.71
2023-02-18T05:21:11.062Z,62.62
2023-02-18T05:22:11.073Z,62.42
2023-02-18T05:23:11.059Z,62.62
2023-02-18T05:24:11.060Z,62.62
2023-02-18T05:25:11.012Z,62.62
2023-02-18T05:26:11.299Z,62.62
2023-02-18T05:27:11.057Z,62.62
2023-02-18T05:28:11.018Z,62.71
2023-02-18T05:29:11.010Z,62.71
2023-02-18T05:30:11.057Z,62.62
2023-02-18T05:31:11.137Z,62.62
2023-02-18T05:32:11.016Z,62.62
2023-02-18T05:33:10.997Z,62.71
2023-02-18T05:34:10.986Z,62.52
2023-02-18T05:35:10.981Z,62.52
2023-02-18T05:36:10.985Z,62.52
2023-02-18T05:37:10.976Z,62.71
2023-02-18T05:38:10.953Z,62.52
2023-02-18T05:39:10.994Z,62.42
2023-02-18T05:40:10.959Z,62.62
2023-02-18T05:41:10.962Z,62.42
2023-02-18T05:42:10.955Z,62.62
2023-02-18T05:43:10.965Z,62.62
2023-02-18T05:44:10.934Z,62.62
2023-02-18T05:45:10.969Z,62.42
2023-02-18T05:46:11.186Z,62.52
2023-02-18T05:47:11.633Z,62.52
2023-02-18T05:48:10.920Z,62.52
2023-02-18T05:49:10.925Z,62.62
2023-02-18T05:50:10.935Z,62.52
2023-02-18T05:51:10.933Z,62.62
2023-02-18T05:52:10.918Z,62.42
2023-02-18T05:53:10.908Z,62.62
2023-02-18T05:54:10.914Z,62.52
2023-02-18T05:55:10.925Z,62.52
2023-02-18T05:56:10.947Z,62.62
2023-02-18T05:57:10.957Z,62.52
2023-02-18T05:58:10.916Z,62.52
2023-02-18T05:59:10.891Z,62.62
2023-02-18T06:00:10.866Z,62.52
2023-02-18T06:01:10.885Z,62.52
2023-02-18T06:02:10.872Z,62.71
2023-02-18T06:03:10.882Z,62.33
2023-02-18T06:04:10.900Z,62.52
2023-02-18T06:05:10.861Z,62.52
2023-02-18T06:06:11.258Z,62.52
2023-02-18T06:07:10.878Z,62.52
2023-02-18T06:08:10.839Z,62.52
2023-02-18T06:09:10.867Z,62.42
2023-02-18T06:10:10.838Z,62.52
2023-02-18T06:11:10.847Z,62.52
2023-02-18T06:12:10.828Z,62.33
2023-02-18T06:13:10.825Z,62.33
2023-02-18T06:14:10.822Z,62.33
2023-02-18T06:15:10.799Z,62.33
2023-02-18T06:16:11.085Z,62.52
2023-02-18T06:17:10.791Z,62.42
2023-02-18T06:18:10.785Z,62.42
2023-02-18T06:19:10.798Z,62.52
2023-02-18T06:20:10.777Z,62.33
2023-02-18T06:21:10.791Z,62.42
2023-02-18T06:22:10.772Z,62.33
2023-02-18T06:23:11.671Z,62.52
2023-02-18T06:24:10.758Z,62.52
2023-02-18T06:25:10.756Z,62.42
2023-02-18T06:26:11.155Z,62.42
2023-02-18T06:27:10.790Z,62.71
2023-02-18T06:28:10.737Z,62.52
2023-02-18T06:29:10.744Z,62.52
2023-02-18T06:30:10.774Z,62.52
2023-02-18T06:31:10.993Z,62.52
2023-02-18T06:32:10.913Z,62.42
2023-02-18T06:33:10.726Z,62.52
2023-02-18T06:34:10.760Z,62.23
2023-02-18T06:35:10.735Z,62.33
2023-02-18T06:36:11.084Z,62.90
2023-02-18T06:37:10.728Z,62.90
2023-02-18T06:38:10.715Z,62.90
2023-02-18T06:39:10.717Z,62.33
2023-02-18T06:40:10.729Z,62.23
2023-02-18T06:41:10.720Z,62.42
2023-02-18T06:42:10.688Z,62.23
2023-02-18T06:43:10.709Z,62.42
2023-02-18T06:44:10.713Z,62.42
2023-02-18T06:45:10.725Z,62.42
2023-02-18T06:46:11.119Z,62.42
2023-02-18T06:47:10.668Z,62.33
2023-02-18T06:48:10.659Z,62.42
2023-02-18T06:49:10.672Z,62.42
2023-02-18T06:50:10.678Z,62.52
2023-02-18T06:51:10.752Z,62.42
2023-02-18T06:52:10.664Z,62.23
2023-02-18T06:53:10.646Z,62.23
2023-02-18T06:54:10.651Z,62.52
2023-02-18T06:55:10.628Z,62.52
2023-02-18T06:56:10.914Z,62.62
2023-02-18T06:57:10.864Z,62.62
2023-02-18T06:58:10.647Z,62.62
2023-02-18T06:59:10.668Z,62.42
2023-02-18T07:00:10.615Z,62.52
2023-02-18T07:01:10.671Z,62.62
2023-02-18T07:02:10.607Z,62.62
2023-02-18T07:03:10.591Z,62.71
2023-02-18T07:04:10.654Z,62.23
2023-02-18T07:05:10.601Z,62.23
2023-02-18T07:06:11.068Z,62.42
2023-02-18T07:07:10.605Z,62.23
2023-02-18T07:08:10.601Z,62.42
2023-02-18T07:09:10.578Z,62.52
2023-02-18T07:10:10.571Z,62.62
2023-02-18T07:11:10.572Z,62.23
2023-02-18T07:12:10.565Z,62.52
2023-02-18T07:13:10.554Z,62.62
2023-02-18T07:14:10.552Z,62.33
2023-02-18T07:15:10.561Z,62.33
2023-02-18T07:16:11.008Z,62.33
2023-02-18T07:17:10.532Z,62.33
2023-02-18T07:18:10.525Z,62.52
2023-02-18T07:19:10.526Z,63.09
2023-02-18T07:20:10.531Z,63.29
2023-02-18T07:21:10.547Z,62.52
2023-02-18T07:22:10.529Z,62.62
2023-02-18T07:23:10.501Z,62.33
2023-02-18T07:24:10.497Z,62.90
2023-02-18T07:25:10.501Z,63.38
2023-02-18T07:26:10.723Z,62.62
2023-02-18T07:27:10.498Z,62.62
2023-02-18T07:28:10.483Z,62.71
2023-02-18T07:29:10.502Z,62.71
2023-02-18T07:30:10.671Z,62.71
2023-02-18T07:31:10.671Z,62.71
2023-02-18T07:32:10.585Z,62.81
2023-02-18T07:33:10.473Z,62.71
2023-02-18T07:34:10.472Z,62.62
2023-02-18T07:35:10.466Z,62.71
2023-02-18T07:36:10.795Z,62.71
2023-02-18T07:37:10.462Z,62.62
2023-02-18T07:38:10.447Z,62.62
2023-02-18T07:39:10.461Z,62.71
2023-02-18T07:40:10.428Z,62.71
2023-02-18T07:41:10.426Z,62.81
2023-02-18T07:42:10.433Z,62.90
2023-02-18T07:43:10.439Z,62.52
2023-02-18T07:44:10.433Z,62.62
2023-02-18T07:45:10.422Z,62.62
2023-02-18T07:46:10.863Z,62.81
2023-02-18T07:47:10.438Z,62.71
2023-02-18T07:48:10.404Z,62.62
2023-02-18T07:49:10.407Z,62.71
2023-02-18T07:50:10.406Z,62.71
2023-02-18T07:51:10.394Z,62.62
2023-02-18T07:52:10.395Z,62.81
2023-02-18T07:53:10.390Z,62.71
2023-02-18T07:54:10.379Z,62.81
2023-02-18T07:55:10.396Z,62.42
2023-02-18T07:56:10.665Z,62.81
2023-02-18T07:57:10.364Z,62.71
2023-02-18T07:58:10.364Z,62.81
2023-02-18T07:59:10.382Z,62.81
2023-02-18T08:00:10.346Z,62.81
2023-02-18T08:01:10.345Z,62.71
2023-02-18T08:02:10.397Z,62.71
2023-02-18T08:03:10.354Z,62.71
2023-02-18T08:04:10.421Z,62.71
2023-02-18T08:05:10.331Z,62.71
2023-02-18T08:06:10.711Z,62.90
2023-02-18T08:07:10.327Z,63.00
2023-02-18T08:08:10.322Z,62.90
2023-02-18T08:09:10.331Z,63.09
2023-02-18T08:10:10.313Z,63.09
2023-02-18T08:11:18.916Z,63.00
2023-02-18T08:12:10.297Z,63.00
2023-02-18T08:13:10.299Z,62.90
2023-02-18T08:14:10.313Z,62.90
2023-02-18T08:15:10.333Z,63.00
2023-02-18T08:16:10.786Z,63.09
2023-02-18T08:17:10.298Z,62.90
2023-02-18T08:18:10.272Z,62.90
2023-02-18T08:19:10.313Z,62.90
2023-02-18T08:20:10.267Z,63.09
2023-02-18T08:21:10.310Z,63.00
2023-02-18T08:22:10.307Z,63.00
2023-02-18T08:23:10.279Z,63.00
2023-02-18T08:24:10.255Z,63.19
2023-02-18T08:25:18.121Z,63.19
2023-02-18T08:26:10.630Z,63.00
2023-02-18T08:27:10.258Z,63.19
2023-02-18T08:28:10.251Z,63.19
2023-02-18T08:29:10.256Z,62.71
2023-02-18T08:30:10.303Z,63.00
2023-02-18T08:31:10.338Z,63.00
2023-02-18T08:32:10.286Z,63.00
2023-02-18T08:33:10.240Z,62.71
2023-02-18T08:34:10.208Z,62.71
2023-02-18T08:35:10.250Z,63.00
2023-02-18T08:36:10.546Z,62.81
2023-02-18T08:37:10.216Z,62.62
2023-02-18T08:38:10.203Z,63.09
2023-02-18T08:39:10.207Z,62.90
2023-02-18T08:40:10.197Z,62.62
2023-02-18T08:41:10.651Z,62.90
2023-02-18T08:42:10.271Z,62.62
2023-02-18T08:43:10.196Z,63.19
2023-02-18T08:44:10.167Z,62.81
2023-02-18T08:45:10.199Z,63.09
2023-02-18T08:46:16.195Z,62.71
2023-02-18T08:48:17.042Z,62.71
2023-02-18T08:48:18.499Z,63.19
2023-02-18T08:49:10.161Z,62.71
2023-02-18T08:50:10.171Z,63.19
2023-02-18T08:51:10.454Z,63.19
2023-02-18T08:52:10.132Z,63.19
2023-02-18T08:53:10.153Z,63.19
2023-02-18T08:54:10.125Z,63.09
2023-02-18T08:55:10.142Z,62.90
2023-02-18T08:56:10.118Z,63.29
2023-02-18T08:57:10.131Z,63.19
2023-02-18T08:58:10.121Z,63.19
2023-02-18T08:59:10.117Z,62.90
2023-02-18T09:00:10.111Z,62.90
2023-02-18T09:01:10.601Z,63.09
2023-02-18T09:02:10.088Z,62.90
2023-02-18T09:03:10.101Z,62.90
2023-02-18T09:04:10.168Z,63.29
2023-02-18T09:05:10.094Z,63.09
2023-02-18T09:06:10.070Z,62.90
2023-02-18T09:07:10.099Z,63.09
2023-02-18T09:08:10.071Z,63.09
2023-02-18T09:09:10.085Z,62.90
2023-02-18T09:10:10.066Z,62.71
2023-02-18T09:11:10.376Z,63.09
2023-02-18T09:12:10.052Z,63.00
2023-02-18T09:13:10.081Z,62.81
2023-02-18T09:14:10.052Z,63.00
2023-02-18T09:15:10.056Z,62.90
2023-02-18T09:16:10.147Z,62.90
2023-02-18T09:17:10.046Z,62.90
2023-02-18T09:18:10.025Z,63.00
2023-02-18T09:19:10.019Z,63.00
2023-02-18T09:20:10.024Z,63.00
2023-02-18T09:21:10.429Z,62.90
2023-02-18T09:22:10.008Z,62.71
2023-02-18T09:23:10.041Z,62.71
2023-02-18T09:24:09.994Z,63.00
2023-02-18T09:25:10.006Z,62.90
2023-02-18T09:26:10.001Z,63.00
2023-02-18T09:27:11.300Z,62.90
2023-02-18T09:28:09.991Z,62.81
2023-02-18T09:29:09.987Z,63.29
2023-02-18T09:30:10.023Z,62.90
2023-02-18T09:31:10.459Z,62.90
2023-02-18T09:32:10.056Z,63.29
2023-02-18T09:33:09.971Z,63.29
2023-02-18T09:34:09.966Z,63.29
2023-02-18T09:35:09.968Z,63.29
2023-02-18T09:36:09.940Z,63.00
2023-02-18T09:37:09.953Z,63.29
2023-02-18T09:38:09.933Z,63.00
2023-02-18T09:39:09.970Z,63.00
2023-02-18T09:40:09.929Z,63.00
2023-02-18T09:41:10.280Z,63.19
2023-02-18T09:42:09.939Z,63.00
2023-02-18T09:43:09.934Z,62.90
2023-02-18T09:44:09.939Z,63.00
2023-02-18T09:45:09.908Z,63.19
2023-02-18T09:46:09.927Z,63.19
2023-02-18T09:47:09.912Z,63.00
2023-02-18T09:48:09.906Z,63.19
2023-02-18T09:49:09.908Z,63.09
2023-02-18T09:50:09.883Z,63.29
2023-02-18T09:51:10.165Z,63.29
2023-02-18T09:52:09.888Z,63.29
2023-02-18T09:53:09.880Z,63.29
2023-02-18T09:54:09.904Z,63.29
2023-02-18T09:55:09.890Z,63.19
2023-02-18T09:56:09.862Z,63.29
2023-02-18T09:57:09.857Z,63.38
2023-02-18T09:58:09.873Z,63.09
2023-02-18T09:59:09.849Z,63.29
2023-02-18T10:00:09.856Z,63.19
2023-02-18T10:01:10.225Z,63.19
2023-02-18T10:02:09.840Z,63.19
2023-02-18T10:03:09.846Z,63.09
2023-02-18T10:04:09.828Z,63.09
2023-02-18T10:05:09.819Z,63.29
2023-02-18T10:06:10.219Z,63.29
2023-02-18T10:07:09.831Z,63.38
2023-02-18T10:08:09.822Z,63.29
2023-02-18T10:09:09.827Z,63.29
2023-02-18T10:10:09.822Z,63.38
2023-02-18T10:11:10.280Z,63.09
2023-02-18T10:12:09.797Z,63.29
2023-02-18T10:13:09.801Z,63.38
2023-02-18T10:14:09.803Z,63.09
2023-02-18T10:15:09.796Z,63.00
2023-02-18T10:16:10.486Z,63.38
2023-02-18T10:17:09.779Z,63.38
2023-02-18T10:18:09.774Z,63.29
2023-02-18T10:19:09.772Z,63.09
2023-02-18T10:20:09.767Z,63.09
2023-02-18T10:21:10.150Z,63.09
2023-02-18T10:22:09.773Z,63.09
2023-02-18T10:23:09.774Z,63.09
2023-02-18T10:24:09.758Z,63.29
2023-02-18T10:25:09.733Z,63.09
2023-02-18T10:26:10.012Z,62.90
2023-02-18T10:27:09.752Z,63.29
2023-02-18T10:28:09.734Z,63.29
2023-02-18T10:29:09.721Z,63.09
2023-02-18T10:30:09.757Z,63.19
2023-02-18T10:31:10.237Z,63.09
2023-02-18T10:32:09.755Z,63.09
2023-02-18T10:33:09.704Z,63.19
2023-02-18T10:34:09.709Z,63.09
2023-02-18T10:35:09.714Z,63.19
2023-02-18T10:36:09.714Z,63.29
2023-02-18T10:37:09.698Z,63.29
2023-02-18T10:38:09.689Z,63.19
2023-02-18T10:39:09.683Z,63.19
2023-02-18T10:40:09.719Z,63.09
2023-02-18T10:41:09.992Z,63.09
2023-02-18T10:42:09.675Z,63.09
2023-02-18T10:43:09.699Z,63.29
2023-02-18T10:44:09.660Z,63.09
2023-02-18T10:45:09.692Z,63.09
2023-02-18T10:46:10.418Z,63.48
2023-02-18T10:47:09.644Z,63.09
2023-02-18T10:48:09.660Z,63.19
2023-02-18T10:49:09.641Z,63.09
2023-02-18T10:50:09.652Z,63.29
2023-02-18T10:51:09.941Z,63.29
2023-02-18T10:52:09.645Z,63.00
2023-02-18T10:53:09.623Z,63.09
2023-02-18T10:54:09.639Z,63.09
2023-02-18T10:55:09.621Z,63.29
2023-02-18T10:56:09.694Z,63.29
2023-02-18T10:57:09.622Z,63.09
2023-02-18T10:58:09.626Z,63.29
2023-02-18T10:59:09.614Z,63.19
2023-02-18T11:00:09.601Z,63.29
2023-02-18T11:01:09.910Z,63.29
2023-02-18T11:02:09.603Z,63.29
2023-02-18T11:03:09.594Z,63.19
2023-02-18T11:04:09.573Z,63.09
2023-02-18T11:05:09.567Z,63.29
2023-02-18T11:06:09.584Z,63.19
2023-02-18T11:07:09.562Z,63.29
2023-02-18T11:08:09.572Z,63.29
2023-02-18T11:09:09.547Z,63.29
2023-02-18T11:10:09.552Z,63.29
2023-02-18T11:11:09.833Z,63.29
2023-02-18T11:12:09.562Z,63.29
2023-02-18T11:13:09.556Z,63.19
2023-02-18T11:14:09.529Z,63.38
2023-02-18T11:15:09.549Z,63.29
2023-02-18T11:16:09.595Z,63.19
2023-02-18T11:17:09.538Z,63.38
2023-02-18T11:18:09.538Z,63.19
2023-02-18T11:19:09.509Z,63.19
2023-02-18T11:20:09.519Z,63.29
2023-02-18T11:21:09.917Z,63.19
2023-02-18T11:22:09.508Z,63.29
2023-02-18T11:23:09.502Z,63.29
2023-02-18T11:24:09.494Z,63.29
2023-02-18T11:25:09.480Z,63.19
2023-02-18T11:26:09.504Z,63.29
2023-02-18T11:27:09.486Z,63.19
2023-02-18T11:28:09.485Z,63.29
2023-02-18T11:29:09.488Z,63.29
2023-02-18T11:30:09.485Z,63.19
2023-02-18T11:31:09.946Z,63.29
2023-02-18T11:32:09.599Z,63.29
2023-02-18T11:33:09.454Z,63.19
2023-02-18T11:34:09.448Z,63.19
2023-02-18T11:35:09.445Z,63.19
2023-02-18T11:36:09.444Z,63.19
2023-02-18T11:37:12.066Z,63.00
2023-02-18T11:38:09.447Z,63.29
2023-02-18T11:39:09.450Z,63.00
2023-02-18T11:40:09.425Z,63.19
2023-02-18T11:41:09.799Z,63.19
2023-02-18T11:42:09.426Z,63.09
2023-02-18T11:43:09.431Z,63.09
2023-02-18T11:44:09.420Z,63.19
2023-02-18T11:45:09.397Z,63.09
2023-02-18T11:46:09.412Z,63.09
2023-02-18T11:47:09.424Z,63.29
2023-02-18T11:48:09.406Z,63.19
2023-02-18T11:49:09.396Z,63.19
2023-02-18T11:50:09.401Z,63.19
2023-02-18T11:51:09.657Z,63.09
2023-02-18T11:52:09.389Z,63.19
2023-02-18T11:53:09.370Z,63.19
2023-02-18T11:54:09.374Z,63.19
2023-02-18T11:55:09.373Z,63.19
2023-02-18T11:56:09.356Z,63.19
2023-02-18T11:57:09.394Z,63.19
2023-02-18T11:58:09.372Z,63.29
2023-02-18T11:59:09.344Z,62.90
2023-02-18T12:00:09.343Z,63.19
2023-02-18T12:01:09.610Z,62.90
2023-02-18T12:02:09.400Z,63.19
2023-02-18T12:03:09.468Z,63.09
2023-02-18T12:04:09.352Z,62.90
2023-02-18T12:05:09.403Z,63.29
2023-02-18T12:06:09.323Z,63.67
2023-02-18T12:07:09.318Z,63.19
2023-02-18T12:08:09.311Z,63.00
2023-02-18T12:09:09.301Z,63.09
2023-02-18T12:10:09.309Z,63.09
2023-02-18T12:11:09.721Z,63.09
2023-02-18T12:12:09.311Z,63.09
2023-02-18T12:13:09.320Z,63.00
2023-02-18T12:14:09.305Z,63.67
2023-02-18T12:15:09.292Z,63.00
2023-02-18T12:16:09.393Z,63.19
2023-02-18T12:17:09.297Z,63.00
2023-02-18T12:18:09.281Z,63.00
2023-02-18T12:19:09.297Z,62.81
2023-02-18T12:20:09.264Z,63.48
2023-02-18T12:21:09.600Z,63.00
2023-02-18T12:22:09.269Z,63.00
2023-02-18T12:23:09.246Z,63.38
2023-02-18T12:24:09.250Z,63.09
2023-02-18T12:25:09.255Z,62.81
2023-02-18T12:26:09.257Z,63.09
2023-02-18T12:27:09.251Z,63.48
2023-02-18T12:28:09.233Z,63.48
2023-02-18T12:29:09.239Z,63.38
2023-02-18T12:30:09.295Z,63.48
2023-02-18T12:31:09.531Z,63.38
2023-02-18T12:32:09.284Z,63.00
2023-02-18T12:33:09.207Z,63.00
2023-02-18T12:34:09.212Z,63.67
2023-02-18T12:35:09.317Z,63.38
2023-02-18T12:36:09.631Z,63.00
2023-02-18T12:37:09.202Z,63.38
2023-02-18T12:38:09.205Z,63.38
2023-02-18T12:39:09.201Z,63.57
2023-02-18T12:40:09.196Z,63.38
2023-02-18T12:41:09.524Z,63.48
2023-02-18T12:42:09.171Z,63.76
2023-02-18T12:43:09.176Z,63.67
2023-02-18T12:44:09.181Z,63.67
2023-02-18T12:45:09.170Z,63.67
2023-02-18T12:46:09.197Z,63.57
2023-02-18T12:47:09.166Z,63.67
2023-02-18T12:48:09.158Z,63.76
2023-02-18T12:49:09.151Z,63.76
2023-02-18T12:50:09.157Z,63.48
2023-02-18T12:51:09.578Z,63.76
2023-02-18T12:52:09.139Z,63.57